Time;durP1;ratioP1;P1;durP2;ratioP2;P2;SDS_P1;SDS_P2;PMS_P1;PMS_P2;Temp;Humidity;BMP_temperature;BMP_pressure;BME280_temperature;BME280_humidity;BME280_pressure;Samples;Min_cycle;Max_cycle;Signal;HPM_P1;HPM_P2
2023/09/19 00:01:14;;;;;;;5.90;1.63;;;;;;;;;;5066291;28;20045;-68
2023/09/19 00:03:41;;;;;;;3.20;1.83;;;;;;;;;;5065257;28;20036;-69
2023/09/19 00:06:08;;;;;;;4.47;1.63;;;;;;;;;;5066341;28;20368;-68
2023/09/19 00:08:34;;;;;;;3.85;1.65;;;;;;;;;;5065277;28;20132;-68
2023/09/19 00:11:05;;;;;;;5.65;2.13;;;;;;;;;;5066303;28;20390;-68
2023/09/19 00:13:32;;;;;;;4.53;2.20;;;;;;;;;;5064638;28;20127;-68
2023/09/19 00:15:58;;;;;;;6.32;1.70;;;;;;;;;;5065808;28;20044;-69
2023/09/19 00:18:29;;;;;;;4.97;2.13;;;19.70;99.30;;;;;;5063247;28;20481;-68
2023/09/19 00:20:58;;;;;;;7.07;1.98;;;18.60;98.00;;;;;;5064830;28;20486;-68
2023/09/19 00:23:24;;;;;;;3.75;1.80;;;18.50;98.00;;;;;;5065369;28;20035;-68
2023/09/19 00:25:50;;;;;;;4.45;1.70;;;18.40;97.90;;;;;;5064676;28;20040;-68
2023/09/19 00:28:18;;;;;;;4.72;2.03;;;;;;;;;;5065718;28;20048;-69
2023/09/19 00:30:44;;;;;;;5.22;1.98;;;;;;;;;;5065499;28;20046;-69
2023/09/19 00:33:15;;;;;;;4.38;2.13;;;;;;;;;;5065157;28;20573;-69
2023/09/19 00:35:47;;;;;;;6.28;1.98;;;;;;;;;;5064473;28;20128;-69
2023/09/19 00:38:15;;;;;;;3.85;1.67;;;;;;;;;;5066466;28;20484;-68
2023/09/19 00:40:44;;;;;;;4.53;2.00;;;;;;;;;;5065599;28;20128;-69
2023/09/19 00:43:11;;;;;;;6.63;2.40;;;;;;;;;;5064711;28;20519;-68
2023/09/19 00:45:42;;;;;;;7.00;2.08;;;;;;;;;;5065105;28;20451;-69
2023/09/19 00:48:09;;;;;;;4.35;2.28;;;;;;;;;;5066303;28;20090;-68
2023/09/19 00:50:35;;;;;;;5.82;2.15;;;;;;;;;;5065520;28;20090;-67
2023/09/19 00:53:07;;;;;;;6.07;2.28;;;;;;;;;;5065758;28;20082;-68
2023/09/19 00:55:34;;;;;;;6.05;2.03;;;;;;;;;;5063627;28;20515;-67
2023/09/19 00:58:00;;;;;;;5.00;1.70;;;;;;;;;;5065228;28;20035;-68
2023/09/19 01:00:27;;;;;;;5.15;1.88;;;;;;;;;;5064314;28;20047;-68
2023/09/19 01:02:53;;;;;;;6.35;2.13;;;;;;;;;;5065650;28;20420;-68
2023/09/19 01:05:19;;;;;;;3.20;1.70;;;;;;;;;;5065444;28;20066;-67
2023/09/19 01:07:46;;;;;;;5.65;1.95;;;;;;;;;;5064554;28;20040;-68
2023/09/19 01:10:16;;;;;;;4.00;1.80;;;;;;;;;;5065338;28;20483;-67
2023/09/19 01:12:45;;;;;;;7.97;2.58;;;;;;;;;;5063773;28;20527;-68
2023/09/19 01:15:16;;;;;;;4.47;1.88;;;;;;;;;;5065703;28;20086;-68
2023/09/19 01:18:03;;;;;;;8.55;2.55;;;;;;;;;;5064355;28;20518;-68
2023/09/19 01:20:48;;;;;;;5.30;1.65;;;;;;;;;;5064900;28;20196;-68
2023/09/19 01:23:18;;;;;;;4.85;1.80;;;;;;;;;;5064933;28;20052;-68
2023/09/19 01:26:08;;;;;;;7.32;2.03;;;;;;;;;;5062458;28;20500;-68
2023/09/19 01:28:57;;;;;;;9.25;2.63;;;;;;;;;;5064763;28;20123;-68
2023/09/19 01:31:24;;;;;;;5.60;1.55;;;;;;;;;;5063710;28;20052;-68
2023/09/19 01:33:59;;;;;;;4.20;2.17;;;;;;;;;;5064400;28;20036;-68
2023/09/19 01:36:25;;;;;;;6.95;2.10;;;;;;;;;;5064666;28;20048;-68
2023/09/19 01:38:52;;;;;;;7.03;2.50;;;;;;;;;;5064983;28;20094;-68
2023/09/19 01:41:27;;;;;;;5.10;1.60;;;;;;;;;;5063495;28;20519;-68
2023/09/19 01:43:53;;;;;;;6.78;1.95;;;;;;;;;;5064582;28;20585;-68
2023/09/19 01:46:25;;;;;;;5.07;1.50;;;;;;;;;;5064260;28;20437;-68
2023/09/19 01:48:55;;;;;;;5.30;1.87;;;;;;;;;;5063752;28;20488;-68
2023/09/19 01:51:26;;;;;;;4.38;2.00;;;;;;;;;;5064277;28;20051;-68
2023/09/19 01:53:56;;;;;;;7.32;2.00;;;;;;;;;;5064054;28;20465;-67
2023/09/19 01:56:32;;;;;;;5.65;2.40;;;;;;;;;;5063756;28;20563;-67
2023/09/19 01:59:00;;;;;;;3.35;1.95;;;;;;;;;;5064176;28;20075;-68
2023/09/19 02:01:26;;;;;;;6.00;2.10;;;;;;;;;;5063647;28;20059;-68
2023/09/19 02:03:53;;;;;;;6.10;2.10;;;;;;;;;;5063767;28;20623;-68
2023/09/19 02:06:21;;;;;;;5.65;2.30;;;;;;;;;;5064263;28;20091;-68
2023/09/19 02:08:47;;;;;;;4.15;1.92;;;;;;;;;;5064440;28;20044;-68
2023/09/19 02:11:14;;;;;;;8.18;1.90;;;;;;;;;;5063745;28;20047;-68
2023/09/19 02:13:40;;;;;;;3.95;1.90;;;;;;;;;;5064542;28;20059;-68
2023/09/19 02:16:07;;;;;;;5.25;2.03;;;;;;;;;;5064132;28;20055;-68
2023/09/19 02:18:34;;;;;;;4.90;1.98;;;;;;;;;;5062969;28;20050;-69
2023/09/19 02:21:04;;;;;;;5.18;1.83;;;;;;;;;;5062700;28;20116;-68
2023/09/19 02:23:30;;;;;;;7.43;2.20;;;;;;;;;;5064200;28;20044;-68
2023/09/19 02:26:00;;;;;;;4.85;2.40;;;;;;;;;;5062604;28;20028;-68
2023/09/19 02:28:30;;;;;;;5.63;2.50;;;;;;;;;;5062895;28;20068;-68
2023/09/19 02:30:56;;;;;;;5.78;2.53;;;;;;;;;;5065043;28;20518;-68
2023/09/19 02:33:23;;;;;;;5.65;2.65;;;;;;;;;;5064543;28;20069;-67
2023/09/19 02:35:49;;;;;;;8.05;2.35;;;;;;;;;;5062111;28;20044;-68
2023/09/19 02:38:18;;;;;;;5.63;1.80;;;;;;;;;;5062847;28;20037;-68
2023/09/19 02:40:44;;;;;;;4.85;2.17;;;;;;;;;;5062629;28;20444;-68
2023/09/19 02:43:10;;;;;;;4.95;2.13;;;;;;;;;;5062541;28;20089;-68
2023/09/19 02:45:36;;;;;;;4.75;2.17;;;;;;;;;;5062911;28;20048;-68
2023/09/19 02:48:02;;;;;;;5.03;2.08;;;;;;;;;;5063310;28;20047;-68
2023/09/19 02:50:29;;;;;;;5.93;1.73;;;;;;;;;;5062490;28;20106;-69
2023/09/19 02:52:55;;;;;;;7.30;1.83;;;;;;;;;;5062040;28;20569;-68
2023/09/19 02:55:21;;;;;;;3.95;1.60;;;;;;;;;;5061821;28;20053;-68
2023/09/19 02:57:48;;;;;;;6.85;2.30;;;;;;;;;;5062607;28;20614;-68
2023/09/19 03:00:14;;;;;;;3.83;1.88;;;;;;;;;;5063635;28;20569;-68
2023/09/19 03:02:41;;;;;;;4.93;2.00;;;;;;;;;;5062862;28;20047;-68
2023/09/19 03:05:07;;;;;;;6.07;2.00;;;;;;;;;;5062732;28;20051;-68
2023/09/19 03:07:34;;;;;;;8.10;1.67;;;;;;;;;;5062694;28;20472;-68
2023/09/19 03:10:00;;;;;;;3.22;1.63;;;;;;;;;;5063246;28;20044;-68
2023/09/19 03:12:27;;;;;;;6.65;2.42;;;;;;;;;;5062447;28;20503;-68
2023/09/19 03:14:53;;;;;;;4.57;2.28;;;;;;;;;;5062197;28;20080;-69
2023/09/19 03:17:20;;;;;;;6.57;2.08;;;;;;;;;;5062697;28;20098;-69
2023/09/19 03:19:47;;;;;;;3.20;1.67;;;;;;;;;;5061295;28;20040;-69
2023/09/19 03:22:14;;;;;;;8.43;2.60;;;;;;;;;;5063081;28;20115;-68
2023/09/19 03:24:40;;;;;;;3.38;1.80;;;;;;;;;;5062822;28;20190;-68
2023/09/19 03:27:06;;;;;;;5.10;1.70;;;;;;;;;;5061827;28;20045;-69
2023/09/19 03:29:32;;;;;;;4.55;1.98;;;;;;;;;;5061892;28;20675;-68
2023/09/19 03:31:58;;;;;;;6.05;2.05;;;;;;;;;;5061686;28;20522;-68
2023/09/19 03:34:24;;;;;;;5.50;1.65;;;;;;;;;;5062216;28;20037;-68
2023/09/19 03:36:50;;;;;;;8.55;2.22;;;;;;;;;;5062557;28;20040;-68
2023/09/19 03:39:16;;;;;;;5.13;1.52;;;;;;;;;;5062952;28;20058;-68
2023/09/19 03:41:43;;;;;;;4.13;2.20;;;;;;;;;;5059952;28;20040;-68
2023/09/19 03:44:09;;;;;;;5.53;1.80;;;;;;;;;;5062655;28;20177;-68
2023/09/19 03:46:36;;;;;;;3.58;2.33;;;;;;;;;;5061188;28;20089;-67
2023/09/19 03:49:02;;;;;;;4.90;1.88;;;;;;;;;;5062309;28;20051;-68
2023/09/19 03:51:29;;;;;;;4.88;2.13;;;;;;;;;;5062073;28;20041;-67
2023/09/19 03:53:56;;;;;;;4.20;1.65;;;;;;;;;;5062390;28;20427;-68
2023/09/19 03:56:22;;;;;;;4.32;2.50;;;;;;;;;;5061694;28;20029;-68
2023/09/19 03:58:48;;;;;;;5.35;2.13;;;;;;;;;;5062019;28;20112;-68
2023/09/19 04:01:16;;;;;;;4.07;1.88;;;;;;;;;;5061573;28;20499;-68
2023/09/19 04:03:46;;;;;;;2.97;1.70;;;;;;;;;;5062264;28;20071;-68
2023/09/19 04:06:13;;;;;;;3.53;1.85;;;;;;;;;;5063022;28;20040;-68
2023/09/19 04:08:39;;;;;;;5.28;2.08;;;;;;;;;;5062611;28;20040;-68
2023/09/19 04:11:05;;;;;;;7.15;1.60;;;;;;;;;;5061627;28;20127;-68
2023/09/19 04:13:31;;;;;;;3.70;1.60;;;;;;;;;;5061359;28;20084;-68
2023/09/19 04:15:58;;;;;;;6.80;2.08;;;;;;;;;;5061553;28;20174;-68
2023/09/19 04:18:24;;;;;;;3.58;1.73;;;;;;;;;;5060774;28;20472;-68
2023/09/19 04:20:50;;;;;;;4.53;1.73;;;;;;;;;;5056724;28;20121;-67
2023/09/19 04:23:17;;;;;;;3.60;1.85;;;;;;;;;;5042189;28;20172;-69
2023/09/19 04:25:43;;;;;;;6.30;1.70;;;;;;;;;;5059419;28;20060;-68
2023/09/19 04:28:10;;;;;;;5.05;1.77;;;;;;;;;;5059322;28;20048;-68
2023/09/19 04:30:37;;;;;;;3.80;2.00;;;;;;;;;;5059841;28;20083;-69
2023/09/19 04:33:05;;;;;;;3.67;1.92;;;;;;;;;;5062534;28;20041;-68
2023/09/19 04:35:31;;;;;;;3.28;1.83;;;;;;;;;;5062633;28;20057;-68
2023/09/19 04:37:57;;;;;;;5.85;1.92;;;;;;;;;;5063119;28;20162;-67
2023/09/19 04:40:26;;;;;;;5.35;2.00;;;;;;;;;;5063169;28;20044;-68
2023/09/19 04:42:58;;;;;;;5.35;2.10;;;;;;;;;;5062468;28;20055;-68
2023/09/19 04:45:26;;;;;;;6.63;2.08;;;;;;;;;;5061983;28;20075;-68
2023/09/19 04:47:53;;;;;;;4.68;2.10;;;;;;;;;;5062719;28;20048;-70
2023/09/19 04:50:19;;;;;;;10.20;2.20;;;;;;;;;;5062145;28;20136;-68
2023/09/19 04:52:48;;;;;;;8.07;2.38;;;;;;;;;;5063689;28;20052;-68
2023/09/19 04:55:18;;;;;;;6.05;2.40;;;;;;;;;;5063364;28;20083;-68
2023/09/19 04:57:48;;;;;;;5.07;2.25;;;;;;;;;;5062538;28;20040;-68
2023/09/19 05:00:14;;;;;;;4.05;2.15;;;;;;;;;;5063249;28;20051;-68
2023/09/19 05:02:42;;;;;;;5.00;2.67;;;;;;;;;;5061882;28;20045;-69
2023/09/19 05:05:11;;;;;;;4.18;1.77;;;;;;;;;;5070537;28;20202;-67
2023/09/19 05:07:39;;;;;;;7.43;2.03;;;;;;;;;;5062655;28;20233;-68
2023/09/19 05:10:06;;;;;;;6.45;2.00;;;;;;;;;;5062275;28;20094;-67
2023/09/19 05:12:35;;;;;;;5.72;2.08;;;;;;;;;;5059438;28;20061;-68
2023/09/19 05:15:03;;;;;;;4.38;1.63;;;;;;;;;;5057063;28;20099;-68
2023/09/19 05:17:29;;;;;;;5.25;1.70;;;;;;;;;;5061537;28;20067;-68
2023/09/19 05:19:55;;;;;;;5.05;2.28;;;;;;;;;;5060722;28;20109;-66
2023/09/19 05:22:21;;;;;;;3.72;1.55;;;;;;;;;;5062174;28;20127;-68
2023/09/19 05:24:48;;;;;;;4.75;1.52;;;;;;;;;;5062138;28;20040;-67
2023/09/19 05:27:16;;;;;;;5.22;2.15;;;;;;;;;;5060813;28;20040;-68
2023/09/19 05:29:45;;;;;;;3.13;1.70;;;;;;;;;;5061123;28;20048;-68
2023/09/19 05:32:12;;;;;;;8.00;2.40;;;;;;;;;;5061790;28;20151;-68
2023/09/19 05:34:38;;;;;;;5.25;1.50;;;;;;;;;;5062401;28;20037;-68
2023/09/19 05:37:08;;;;;;;6.55;1.67;;;;;;;;;;5061857;28;20048;-68
2023/09/19 05:39:34;;;;;;;4.35;1.90;;;;;;;;;;5062509;28;20055;-68
2023/09/19 05:42:07;;;;;;;6.80;1.93;;;;;;;;;;5060049;28;20040;-68
2023/09/19 05:44:34;;;;;;;4.95;2.05;;;;;;;;;;5060075;28;20586;-68
2023/09/19 05:47:00;;;;;;;4.50;2.28;;;;;;;;;;5059731;28;20055;-68
2023/09/19 05:49:27;;;;;;;6.10;1.80;;;;;;;;;;5061409;28;20044;-68
2023/09/19 05:51:55;;;;;;;5.35;2.13;;;;;;;;;;5059500;28;20442;-68
2023/09/19 05:54:22;;;;;;;7.05;2.53;;;;;;;;;;5061262;28;20379;-68
2023/09/19 05:56:48;;;;;;;5.82;2.53;;;;;;;;;;5059419;28;20416;-69
2023/09/19 05:59:17;;;;;;;10.13;2.58;;;;;;;;;;5060610;28;20119;-68
2023/09/19 06:01:44;;;;;;;7.43;2.10;;;;;;;;;;5060985;28;20044;-69
2023/09/19 06:04:10;;;;;;;3.00;1.52;;;;;;;;;;5060508;28;20044;-68
2023/09/19 06:06:39;;;;;;;7.57;1.95;;;;;;;;;;5060326;28;20040;-68
2023/09/19 06:09:08;;;;;;;5.53;2.33;;;;;;;;;;5061715;28;20044;-68
2023/09/19 06:11:37;;;;;;;6.78;1.85;;;;;;;;;;5058223;28;20056;-67
2023/09/19 06:14:03;;;;;;;4.72;1.63;;;;;;;;;;5060996;28;20059;-66
2023/09/19 06:16:32;;;;;;;4.05;2.17;;;;;;;;;;5059293;28;20076;-68
2023/09/19 06:18:59;;;;;;;7.65;2.50;;;;;;;;;;5061037;28;20426;-68
2023/09/19 06:21:26;;;;;;;4.53;2.15;;;;;;;;;;5057923;28;20533;-68
2023/09/19 06:23:53;;;;;;;8.25;2.20;;;;;;;;;;5061194;28;20375;-68
2023/09/19 06:26:19;;;;;;;7.55;2.00;;;;;;;;;;5059589;28;20055;-67
2023/09/19 06:28:45;;;;;;;6.38;2.17;;;;;;;;;;5059071;28;20052;-68
2023/09/19 06:31:12;;;;;;;5.85;1.85;;;;;;;;;;5059630;28;20151;-67
2023/09/19 06:33:39;;;;;;;5.10;2.03;;;;;;;;;;5060232;28;20083;-68
2023/09/19 06:36:08;;;;;;;6.53;2.33;;;;;;;;;;5056902;28;20121;-68
2023/09/19 06:38:36;;;;;;;6.53;2.03;;;;;;;;;;5050306;28;20442;-68
2023/09/19 06:41:07;;;;;;;6.13;2.17;;;;;;;;;;5058474;28;20712;-68
2023/09/19 06:43:33;;;;;;;10.95;3.03;;;;;;;;;;5058670;28;20800;-68
2023/09/19 06:46:00;;;;;;;7.50;2.45;;;;;;;;;;5059153;28;20050;-67
2023/09/19 06:48:26;;;;;;;5.53;1.95;;;;;;;;;;5058104;28;20582;-67
2023/09/19 06:50:58;;;;;;;8.43;2.17;;;;;;;;;;5058215;28;20344;-68
2023/09/19 06:53:24;;;;;;;7.15;3.20;;;;;;;;;;5057594;28;20123;-68
2023/09/19 06:55:51;;;;;;;7.18;1.75;;;;;;;;;;5059186;28;20045;-68
2023/09/19 06:58:17;;;;;;;6.57;2.08;;;;;;;;;;5059744;28;20046;-68
2023/09/19 07:00:44;;;;;;;5.47;1.95;;;;;;;;;;5058887;28;20037;-68
2023/09/19 07:03:13;;;;;;;3.83;1.77;;;;;;;;;;5058105;28;20395;-69
2023/09/19 07:05:40;;;;;;;4.18;1.95;;;;;;;;;;5059024;28;20044;-68
2023/09/19 07:08:07;;;;;;;4.93;1.92;;;;;;;;;;5059390;28;20058;-68
2023/09/19 07:10:33;;;;;;;7.72;2.83;;;;;;;;;;5058092;28;21006;-68
2023/09/19 07:13:00;;;;;;;7.80;2.53;;;;;;;;;;5058880;28;20482;-69
2023/09/19 07:15:28;;;;;;;4.55;2.08;;;;;;;;;;5059795;28;20040;-68
2023/09/19 07:17:56;;;;;;;7.72;2.30;;;;;;;;;;5059706;28;20036;-69
2023/09/19 07:20:25;;;;;;;4.40;1.85;;;;;;;;;;5059078;28;20052;-69
2023/09/19 07:22:51;;;;;;;9.00;2.47;;;;;;;;;;5058884;28;20048;-69
2023/09/19 07:25:17;;;;;;;3.67;1.92;;;;;;;;;;5059490;28;20033;-68
2023/09/19 07:27:44;;;;;;;4.93;2.00;;;;;;;;;;5057562;28;20344;-68
2023/09/19 07:30:11;;;;;;;6.15;2.13;;;;;;;;;;5059150;28;20051;-68
2023/09/19 07:32:38;;;;;;;5.00;2.05;;;;;;;;;;5055448;28;20460;-69
2023/09/19 07:35:05;;;;;;;10.68;2.38;;;;;;;;;;5057990;28;20107;-68
2023/09/19 07:37:36;;;;;;;6.88;1.92;;;;;;;;;;5058595;28;20094;-68
2023/09/19 07:40:09;;;;;;;5.32;1.85;;;;;;;;;;5059706;28;20041;-68
2023/09/19 07:42:38;;;;;;;3.70;1.75;;;;;;;;;;5056379;28;20040;-68
2023/09/19 07:45:05;;;;;;;6.20;2.30;;;18.40;97.90;;;;;;5057380;28;20048;-68
2023/09/19 07:47:32;;;;;;;6.47;2.28;;;17.70;96.00;;;;;;5064561;28;20044;-69
2023/09/19 07:49:59;;;;;;;5.63;3.22;;;17.60;95.90;;;;;;5056124;28;20551;-69
2023/09/19 07:52:27;;;;;;;8.52;2.72;;;17.70;95.90;;;;;;5057668;28;20636;-69
2023/09/19 07:54:53;;;;;;;3.53;1.73;;;17.70;95.90;;;;;;5059678;28;20036;-69
2023/09/19 07:57:19;;;;;;;5.45;2.35;;;17.70;95.90;;;;;;5059026;28;20130;-69
2023/09/19 07:59:45;;;;;;;5.20;1.60;;;17.80;95.90;;;;;;5059239;28;20090;-69
2023/09/19 08:02:15;;;;;;;7.30;2.40;;;17.80;96.10;;;;;;5057013;28;20190;-69
2023/09/19 08:04:48;;;;;;;9.57;3.38;;;17.80;95.80;;;;;;5059645;28;20135;-67
2023/09/19 08:07:14;;;;;;;6.38;3.05;;;17.90;95.80;;;;;;5063318;28;20314;-67
2023/09/19 08:09:41;;;;;;;10.07;2.30;;;17.90;95.80;;;;;;5063137;28;20052;-67
2023/09/19 08:12:10;;;;;;;5.20;2.10;;;17.90;95.80;;;;;;5062261;28;20122;-69
2023/09/19 08:14:37;;;;;;;5.45;2.15;;;17.90;95.80;;;;;;5063010;28;20059;-68
2023/09/19 08:17:05;;;;;;;7.03;2.42;;;17.80;95.80;;;;;;5062653;28;20032;-69
2023/09/19 08:19:31;;;;;;;5.10;2.40;;;17.90;95.80;;;;;;5060686;28;20526;-68
2023/09/19 08:22:03;;;;;;;5.72;2.30;;;17.90;95.80;;;;;;5061395;28;20530;-68
2023/09/19 08:24:30;;;;;;;6.22;2.00;;;18.00;95.80;;;;;;5062612;28;20080;-68
2023/09/19 08:26:57;;;;;;;4.57;2.65;;;18.00;95.80;;;;;;5069183;28;20143;-69
2023/09/19 08:29:30;;;;;;;8.05;2.33;;;18.00;95.80;;;;;;5063479;28;20044;-69
2023/09/19 08:31:58;;;;;;;6.35;2.45;;;18.00;95.80;;;;;;5061232;28;20056;-69
2023/09/19 08:34:25;;;;;;;6.70;2.70;;;18.10;95.80;;;;;;5062048;28;20067;-68
2023/09/19 08:36:52;;;;;;;8.20;2.38;;;18.10;95.80;;;;;;5062678;28;20052;-68
2023/09/19 08:39:19;;;;;;;4.55;1.70;;;18.10;95.80;;;;;;5060062;28;20087;-69
2023/09/19 08:41:45;;;;;;;7.10;2.33;;;18.10;95.80;;;;;;5061663;28;20419;-68
2023/09/19 08:44:11;;;;;;;8.63;2.65;;;18.20;95.80;;;;;;5057035;28;20113;-68
2023/09/19 08:46:41;;;;;;;6.50;2.22;;;18.20;95.80;;;;;;5060496;28;20486;-68
2023/09/19 08:49:33;;;;;;;8.70;2.85;;;18.20;95.80;;;;;;5060652;28;20048;-68
2023/09/19 08:52:13;;;;;;;6.72;2.47;;;18.30;95.90;;;;;;5061380;28;20470;-68
2023/09/19 08:54:41;;;;;;;7.45;2.88;;;18.40;95.90;;;;;;5060924;28;20044;-68
2023/09/19 08:57:11;;;;;;;8.88;2.80;;;18.40;95.80;;;;;;5059948;28;20590;-69
2023/09/19 08:59:41;;;;;;;6.63;2.75;;;18.50;95.80;;;;;;5058688;28;20067;-68
2023/09/19 09:02:12;;;;;;;9.02;2.00;;;;;;;;;;5060538;28;20036;-67
2023/09/19 09:04:40;;;;;;;5.70;2.22;;;;;;;;;;5062186;28;20047;-67
2023/09/19 09:07:11;;;;;;;5.65;2.60;;;;;;;;;;5062273;28;20174;-68
2023/09/19 09:09:37;;;;;;;6.45;2.72;;;;;;;;;;5058893;28;20052;-67
2023/09/19 09:12:04;;;;;;;5.70;2.17;;;;;;;;;;5061535;28;20052;-67
2023/09/19 09:14:31;;;;;;;8.05;2.80;;;;;;;;;;5060796;28;20060;-68
2023/09/19 09:16:59;;;;;;;5.43;2.70;;;;;;;;;;5026114;28;20076;-68
2023/09/19 09:19:25;;;;;;;4.28;2.22;;;;;;;;;;5058582;28;20044;-68
2023/09/19 09:21:51;;;;;;;8.45;3.10;;;;;;;;;;5060823;28;20055;-67
2023/09/19 09:24:33;;;;;;;9.27;2.72;;;;;;;;;;5056858;28;20426;-67
2023/09/19 09:27:00;;;;;;;7.95;3.28;;;18.50;95.80;;;;;;5058138;28;20052;-68
2023/09/19 09:29:43;;;;;;;5.63;2.63;;;19.30;95.50;;;;;;5060963;28;20048;-67
2023/09/19 09:32:28;;;;;;;8.38;2.78;;;19.40;95.50;;;;;;5058267;28;20057;-68
2023/09/19 09:34:58;;;;;;;4.18;2.03;;;19.40;95.50;;;;;;5062843;28;20131;-68
2023/09/19 09:37:26;;;;;;;5.63;2.72;;;;;;;;;;5059644;28;20066;-67
2023/09/19 09:39:58;;;;;;;7.07;2.67;;;19.50;95.40;;;;;;5058989;28;20542;-68
2023/09/19 09:42:32;;;;;;;10.38;2.67;;;19.70;95.40;;;;;;5054855;28;20076;-68
2023/09/19 09:45:19;;;;;;;4.80;2.40;;;19.80;95.40;;;;;;5060592;28;20052;-68
2023/09/19 09:47:54;;;;;;;9.23;2.70;;;;;;;;;;5061982;28;20051;-69
2023/09/19 09:53:26;;;;;;;10.27;2.63;;;;;;;;;;5058894;28;20063;-68
2023/09/19 09:55:59;;;;;;;7.22;3.05;;;;;;;;;;5060557;28;20511;-68
2023/09/19 09:58:29;;;;;;;6.78;2.45;;;;;;;;;;5059612;28;20860;-68
2023/09/19 10:00:59;;;;;;;6.32;2.75;;;;;;;;;;5057814;28;20043;-68
2023/09/19 10:03:34;;;;;;;7.20;2.40;;;;;;;;;;5060711;28;20044;-68
2023/09/19 10:06:08;;;;;;;7.80;2.90;;;19.80;95.30;;;;;;5060888;28;20143;-69
2023/09/19 10:08:36;;;;;;;6.38;2.50;;;;;;;;;;5060916;28;20048;-68
2023/09/19 10:11:15;;;;;;;10.93;4.22;;;;;;;;;;5060381;28;20052;-69
2023/09/19 10:13:42;;;;;;;6.60;2.97;;;;;;;;;;5061410;28;20094;-69
2023/09/19 10:16:10;;;;;;;12.45;3.30;;;;;;;;;;5059492;28;20444;-69
2023/09/19 10:18:38;;;;;;;8.70;3.25;;;;;;;;;;5061155;28;20048;-69
2023/09/19 10:21:08;;;;;;;11.98;3.60;;;;;;;;;;5059293;28;20336;-68
2023/09/19 10:23:36;;;;;;;10.48;3.25;;;;;;;;;;5061556;28;20388;-69
2023/09/19 10:26:05;;;;;;;9.02;2.70;;;;;;;;;;5058285;28;20193;-69
2023/09/19 10:28:31;;;;;;;6.63;2.53;;;;;;;;;;5059121;28;20040;-69
2023/09/19 10:30:58;;;;;;;9.13;3.45;;;;;;;;;;5060536;28;20186;-68
2023/09/19 10:33:29;;;;;;;9.25;3.42;;;;;;;;;;5058540;28;20511;-69
2023/09/19 10:35:57;;;;;;;10.63;3.40;;;;;;;;;;5059301;28;20165;-69
2023/09/19 10:38:24;;;;;;;7.93;2.70;;;;;;;;;;5060974;28;20064;-69
2023/09/19 10:40:51;;;;;;;5.43;2.83;;;;;;;;;;5051610;28;20464;-69
2023/09/19 10:43:18;;;;;;;6.43;3.17;;;;;;;;;;5056390;28;20036;-69
2023/09/19 10:45:46;;;;;;;7.05;2.97;;;;;;;;;;5059620;28;20052;-69
2023/09/19 10:48:12;;;;;;;10.05;3.67;;;;;;;;;;5060374;28;20048;-69
2023/09/19 10:50:42;;;;;;;7.53;3.50;;;;;;;;;;5058876;28;20044;-69
2023/09/19 10:53:10;;;;;;;10.48;3.35;;;;;;;;;;5059649;28;20044;-68
2023/09/19 10:55:37;;;;;;;13.13;4.35;;;;;;;;;;5057063;28;20055;-69
2023/09/19 10:58:13;;;;;;;10.68;3.40;;;;;;;;;;5059119;28;20119;-69
2023/09/19 11:01:14;;;;;;;10.57;3.67;;;;;;;;;;5059081;28;20049;-69
2023/09/19 11:03:43;;;;;;;6.28;2.85;;;;;;;;;;5047137;28;20058;-69
2023/09/19 11:06:13;;;;;;;10.88;3.85;;;;;;;;;;5057628;28;20040;-69
2023/09/19 11:09:07;;;;;;;14.82;3.35;;;;;;;;;;5056123;28;20037;-70
2023/09/19 11:11:39;;;;;;;6.65;3.53;;;;;;;;;;5057186;28;20120;-69
2023/09/19 11:14:14;;;;;;;7.03;2.92;;;;;;;;;;5057909;28;20161;-69
2023/09/19 11:16:40;;;;;;;9.32;3.40;;;;;;;;;;5057841;28;20396;-69
2023/09/19 11:19:07;;;;;;;11.90;4.15;;;;;;;;;;5057277;28;20043;-69
2023/09/19 11:21:33;;;;;;;8.13;3.53;;;;;;;;;;5056858;28;20040;-69
2023/09/19 11:24:22;;;;;;;10.80;3.88;;;;;;;;;;5059947;28;20113;-69
2023/09/19 11:26:49;;;;;;;5.75;2.83;;;;;;;;;;5060029;28;20076;-70
2023/09/19 11:29:29;;;;;;;7.68;3.28;;;;;;;;;;5060275;28;20029;-69
2023/09/19 11:32:01;;;;;;;14.45;4.25;;;;;;;;;;5062016;28;20048;-69
2023/09/19 11:34:39;;;;;;;9.90;3.33;;;;;;;;;;5058075;28;20044;-70
2023/09/19 11:37:11;;;;;;;13.57;4.20;;;;;;;;;;5060108;28;20036;-70
2023/09/19 11:39:43;;;;;;;12.30;4.35;;;;;;;;;;5061720;28;20040;-69
2023/09/19 11:42:28;;;;;;;9.10;3.00;;;;;;;;;;5064106;28;20128;-70
2023/09/19 11:44:55;;;;;;;11.68;3.65;;;;;;;;;;5061891;28;20510;-69
2023/09/19 11:47:25;;;;;;;10.73;3.72;;;;;;;;;;5064239;28;20555;-69
2023/09/19 11:49:53;;;;;;;12.05;3.83;;;;;;;;;;5061767;28;20048;-69
2023/09/19 11:52:25;;;;;;;8.13;3.65;;;;;;;;;;5061346;28;20068;-70
2023/09/19 11:54:56;;;;;;;10.65;3.78;;;;;;;;;;5064000;28;20119;-70
2023/09/19 11:57:23;;;;;;;15.70;5.50;;;;;;;;;;5063514;28;20083;-69
2023/09/19 11:59:49;;;;;;;9.15;3.50;;;20.30;95.20;;;;;;5061499;28;20526;-69
2023/09/19 12:02:39;;;;;;;7.18;3.15;;;20.00;95.30;;;;;;5062820;28;20091;-69
2023/09/19 12:05:05;;;;;;;6.45;3.63;;;19.90;95.50;;;;;;5060530;28;20044;-69
2023/09/19 12:07:47;;;;;;;8.75;2.88;;;19.90;95.60;;;;;;5062274;28;20569;-69
2023/09/19 12:10:14;;;;;;;9.10;3.00;;;19.80;95.80;;;;;;5060109;28;20049;-69
2023/09/19 12:12:42;;;;;;;8.77;3.65;;;19.80;95.90;;;;;;5061378;28;20106;-69
2023/09/19 12:15:08;;;;;;;9.20;3.70;;;19.80;96.10;;;;;;5063603;28;20122;-69
2023/09/19 12:17:37;;;;;;;9.60;2.65;;;19.80;96.20;;;;;;5062344;28;20404;-69
2023/09/19 12:20:36;;;;;;;4.78;2.70;;;19.80;96.30;;;;;;5063037;28;20419;-69
2023/09/19 12:22:55;;;;;;;12.93;2.85;;;19.80;96.40;;;;;;5061901;28;20368;-69
2023/09/19 12:25:21;;;;;;;5.70;2.60;;;19.90;96.50;;;;;;5059947;28;20048;-69
2023/09/19 12:27:56;;;;;;;8.93;3.00;;;19.90;96.60;;;;;;5057624;28;20036;-69
2023/09/19 12:30:28;;;;;;;7.68;2.80;;;19.90;96.60;;;;;;5060041;28;20048;-69
2023/09/19 12:32:55;;;;;;;7.35;2.78;;;19.90;96.60;;;;;;5059124;28;20056;-69
2023/09/19 12:35:35;;;;;;;7.13;2.17;;;20.00;96.70;;;;;;5059851;28;20406;-68
2023/09/19 12:38:03;;;;;;;5.05;2.15;;;20.00;96.70;;;;;;5060133;28;20059;-69
2023/09/19 12:40:33;;;;;;;7.75;2.55;;;20.00;96.70;;;;;;5062648;28;20136;-69
2023/09/19 12:43:00;;;;;;;6.75;2.38;;;19.90;96.70;;;;;;5060624;28;20118;-69
2023/09/19 12:45:27;;;;;;;9.88;3.60;;;19.90;96.70;;;;;;5060364;28;20075;-69
2023/09/19 12:48:33;;;;;;;6.38;3.10;;;19.90;96.80;;;;;;5059511;28;20062;-69
2023/09/19 12:51:07;;;;;;;6.07;2.47;;;19.90;96.80;;;;;;5060699;28;20046;-69
2023/09/19 12:53:37;;;;;;;6.22;2.45;;;19.80;96.70;;;;;;5062896;28;20040;-69
2023/09/19 12:56:08;;;;;;;7.25;2.85;;;19.80;96.70;;;;;;5057610;28;20448;-69
2023/09/19 12:58:47;;;;;;;7.07;2.30;;;19.80;96.80;;;;;;5061204;28;20426;-69
2023/09/19 13:01:16;;;;;;;4.72;2.85;;;19.70;96.90;;;;;;5058586;28;21103;-69
2023/09/19 13:03:42;;;;;;;5.75;2.63;;;19.70;96.90;;;;;;5060626;28;20636;-69
2023/09/19 13:06:09;;;;;;;5.38;2.67;;;19.70;97.00;;;;;;5060896;28;20997;-68
2023/09/19 13:08:38;;;;;;;6.80;2.50;;;19.70;97.10;;;;;;5060826;28;20044;-69
2023/09/19 13:11:12;;;;;;;5.82;2.35;;;19.70;97.20;;;;;;5059817;28;20364;-69
2023/09/19 13:13:53;;;;;;;9.95;2.00;;;19.70;97.30;;;;;;5062204;28;20051;-69
2023/09/19 13:16:22;;;;;;;5.15;2.08;;;19.70;97.30;;;;;;5062848;28;20040;-69
2023/09/19 13:18:53;;;;;;;4.10;2.25;;;19.70;97.30;;;;;;5062758;28;20143;-70
2023/09/19 13:21:37;;;;;;;5.68;2.53;;;19.70;97.30;;;;;;5063471;28;20044;-69
2023/09/19 13:24:25;;;;;;;4.70;2.42;;;19.70;97.40;;;;;;5063679;28;20141;-69
2023/09/19 13:26:51;;;;;;;8.38;2.50;;;19.70;97.50;;;;;;5063269;28;20068;-70
2023/09/19 13:29:18;;;;;;;4.70;1.48;;;19.60;97.40;;;;;;5058350;28;20186;-70
2023/09/19 13:31:52;;;;;;;4.05;1.95;;;19.60;97.40;;;;;;5060202;28;20462;-69
2023/09/19 13:34:19;;;;;;;6.25;2.30;;;19.60;97.40;;;;;;5058229;28;20051;-69
2023/09/19 13:36:49;;;;;;;8.00;2.25;;;19.60;97.50;;;;;;5061839;28;20048;-69
2023/09/19 13:39:16;;;;;;;5.00;1.90;;;19.60;97.50;;;;;;5059385;28;20119;-69
2023/09/19 13:41:46;;;;;;;3.75;2.20;;;19.60;97.50;;;;;;5059780;28;20399;-69
2023/09/19 13:44:12;;;;;;;5.97;2.13;;;19.60;97.50;;;;;;5060441;28;20036;-69
2023/09/19 13:46:38;;;;;;;6.22;2.60;;;19.60;97.50;;;;;;5059998;28;20036;-69
2023/09/19 13:49:04;;;;;;;6.25;2.92;;;19.60;97.50;;;;;;5060724;28;20421;-70
2023/09/19 13:51:31;;;;;;;4.43;2.22;;;19.60;97.50;;;;;;5059789;28;20044;-69
2023/09/19 13:53:57;;;;;;;7.22;2.15;;;19.60;97.50;;;;;;5058100;28;20108;-69
2023/09/19 13:56:23;;;;;;;5.63;1.65;;;19.60;97.50;;;;;;5060064;28;20041;-69
2023/09/19 13:58:49;;;;;;;3.45;1.95;;;19.60;97.50;;;;;;5060092;28;20036;-70
2023/09/19 14:01:16;;;;;;;4.53;1.70;;;19.60;97.60;;;;;;5060157;28;20032;-69
2023/09/19 14:03:49;;;;;;;5.95;2.45;;;19.60;97.60;;;;;;5060573;28;20055;-69
2023/09/19 14:06:18;;;;;;;8.88;2.60;;;19.60;97.60;;;;;;5060964;28;20052;-69
2023/09/19 14:08:47;;;;;;;5.35;2.05;;;19.60;97.70;;;;;;5060451;28;20120;-70
2023/09/19 14:11:17;;;;;;;4.65;2.22;;;19.60;97.70;;;;;;5060544;28;20037;-69
2023/09/19 14:13:48;;;;;;;4.45;1.95;;;19.60;97.70;;;;;;5058977;28;20052;-69
2023/09/19 14:16:16;;;;;;;6.65;2.80;;;19.50;97.70;;;;;;5060652;28;20076;-69
2023/09/19 14:18:41;;;;;;;4.95;2.40;;;19.60;97.70;;;;;;5060800;28;20028;-70